sensor_id;sensor_type;location;lat;lon;timestamp;P1;durP1;ratioP1;P2;durP2;ratioP2
7021;SDS011;3552;42.664;23.406;2022-12-07T00:01:07;43.93;;;22.00;;
7021;SDS011;3552;42.664;23.406;2022-12-07T00:03:37;44.83;;;20.70;;
7021;SDS011;3552;42.664;23.406;2022-12-07T00:06:06;49.47;;;22.77;;
7021;SDS011;3552;42.664;23.406;2022-12-07T00:08:34;45.67;;;22.47;;
7021;SDS011;3552;42.664;23.406;2022-12-07T00:11:01;44.17;;;20.87;;
7021;SDS011;3552;42.664;23.406;2022-12-07T00:13:29;39.70;;;19.90;;
7021;SDS011;3552;42.664;23.406;2022-12-07T00:15:59;44.67;;;20.87;;
7021;SDS011;3552;42.664;23.406;2022-12-07T00:18:28;41.40;;;20.83;;
7021;SDS011;3552;42.664;23.406;2022-12-07T00:20:59;55.67;;;25.17;;
7021;SDS011;3552;42.664;23.406;2022-12-07T00:23:27;46.37;;;21.30;;
7021;SDS011;3552;42.664;23.406;2022-12-07T00:25:54;49.50;;;21.60;;
7021;SDS011;3552;42.664;23.406;2022-12-07T00:28:21;43.93;;;21.20;;
7021;SDS011;3552;42.664;23.406;2022-12-07T00:30:48;42.47;;;21.10;;
7021;SDS011;3552;42.664;23.406;2022-12-07T00:33:15;45.17;;;20.20;;
7021;SDS011;3552;42.664;23.406;2022-12-07T00:35:47;48.00;;;20.70;;
7021;SDS011;3552;42.664;23.406;2022-12-07T00:38:28;38.90;;;19.20;;
7021;SDS011;3552;42.664;23.406;2022-12-07T00:40:59;45.70;;;20.80;;
7021;SDS011;3552;42.664;23.406;2022-12-07T00:43:30;40.43;;;19.47;;
7021;SDS011;3552;42.664;23.406;2022-12-07T00:46:02;37.50;;;19.97;;
7021;SDS011;3552;42.664;23.406;2022-12-07T00:48:38;45.97;;;20.83;;
7021;SDS011;3552;42.664;23.406;2022-12-07T00:51:53;37.33;;;18.40;;
7021;SDS011;3552;42.664;23.406;2022-12-07T00:54:41;59.67;;;26.70;;
7021;SDS011;3552;42.664;23.406;2022-12-07T00:57:09;53.57;;;24.90;;
7021;SDS011;3552;42.664;23.406;2022-12-07T01:00:09;46.40;;;21.20;;
7021;SDS011;3552;42.664;23.406;2022-12-07T01:02:42;44.67;;;19.90;;
7021;SDS011;3552;42.664;23.406;2022-12-07T01:05:39;39.03;;;19.53;;
7021;SDS011;3552;42.664;23.406;2022-12-07T01:10:58;40.87;;;20.43;;
7021;SDS011;3552;42.664;23.406;2022-12-07T01:13:34;44.57;;;20.90;;
7021;SDS011;3552;42.664;23.406;2022-12-07T01:16:17;46.83;;;22.03;;
7021;SDS011;3552;42.664;23.406;2022-12-07T01:19:00;53.00;;;24.90;;
7021;SDS011;3552;42.664;23.406;2022-12-07T01:21:50;55.00;;;26.30;;
7021;SDS011;3552;42.664;23.406;2022-12-07T01:27:14;48.03;;;22.47;;
7021;SDS011;3552;42.664;23.406;2022-12-07T01:29:48;46.40;;;23.60;;
7021;SDS011;3552;42.664;23.406;2022-12-07T01:32:19;51.17;;;22.73;;
7021;SDS011;3552;42.664;23.406;2022-12-07T01:34:48;47.53;;;21.97;;
7021;SDS011;3552;42.664;23.406;2022-12-07T01:37:17;45.07;;;20.80;;
7021;SDS011;3552;42.664;23.406;2022-12-07T01:39:54;45.27;;;20.30;;
7021;SDS011;3552;42.664;23.406;2022-12-07T01:42:33;38.43;;;19.67;;
7021;SDS011;3552;42.664;23.406;2022-12-07T01:48:04;39.43;;;18.90;;
7021;SDS011;3552;42.664;23.406;2022-12-07T01:50:36;37.10;;;17.93;;
7021;SDS011;3552;42.664;23.406;2022-12-07T01:53:08;34.80;;;16.97;;
7021;SDS011;3552;42.664;23.406;2022-12-07T01:55:40;39.23;;;18.23;;
7021;SDS011;3552;42.664;23.406;2022-12-07T01:58:13;40.33;;;17.90;;
7021;SDS011;3552;42.664;23.406;2022-12-07T02:00:50;40.13;;;19.27;;
7021;SDS011;3552;42.664;23.406;2022-12-07T02:03:21;42.07;;;19.73;;
7021;SDS011;3552;42.664;23.406;2022-12-07T02:05:53;52.60;;;24.60;;
7021;SDS011;3552;42.664;23.406;2022-12-07T02:08:23;43.57;;;19.33;;
7021;SDS011;3552;42.664;23.406;2022-12-07T02:10:53;38.40;;;19.30;;
7021;SDS011;3552;42.664;23.406;2022-12-07T02:13:21;63.33;;;28.87;;
7021;SDS011;3552;42.664;23.406;2022-12-07T02:15:55;55.67;;;27.37;;
7021;SDS011;3552;42.664;23.406;2022-12-07T02:18:34;57.20;;;25.03;;
7021;SDS011;3552;42.664;23.406;2022-12-07T02:21:12;46.97;;;22.23;;
7021;SDS011;3552;42.664;23.406;2022-12-07T02:24:12;47.83;;;22.43;;
7021;SDS011;3552;42.664;23.406;2022-12-07T02:26:53;47.97;;;22.00;;
7021;SDS011;3552;42.664;23.406;2022-12-07T02:29:35;45.97;;;20.97;;
7021;SDS011;3552;42.664;23.406;2022-12-07T02:32:06;45.57;;;21.10;;
7021;SDS011;3552;42.664;23.406;2022-12-07T02:34:39;50.90;;;23.60;;
7021;SDS011;3552;42.664;23.406;2022-12-07T02:37:16;39.50;;;18.67;;
7021;SDS011;3552;42.664;23.406;2022-12-07T02:39:48;44.87;;;20.67;;
7021;SDS011;3552;42.664;23.406;2022-12-07T02:42:23;44.63;;;20.00;;
7021;SDS011;3552;42.664;23.406;2022-12-07T02:44:55;44.30;;;21.63;;
7021;SDS011;3552;42.664;23.406;2022-12-07T02:47:24;40.13;;;18.93;;
7021;SDS011;3552;42.664;23.406;2022-12-07T02:49:52;39.80;;;19.57;;
7021;SDS011;3552;42.664;23.406;2022-12-07T02:52:19;44.83;;;19.97;;
7021;SDS011;3552;42.664;23.406;2022-12-07T02:54:46;45.07;;;20.67;;
7021;SDS011;3552;42.664;23.406;2022-12-07T02:57:18;53.87;;;22.93;;
7021;SDS011;3552;42.664;23.406;2022-12-07T02:59:59;55.63;;;23.40;;
7021;SDS011;3552;42.664;23.406;2022-12-07T03:02:31;51.93;;;23.83;;
7021;SDS011;3552;42.664;23.406;2022-12-07T03:05:13;45.47;;;21.63;;
7021;SDS011;3552;42.664;23.406;2022-12-07T03:07:51;42.30;;;20.30;;
7021;SDS011;3552;42.664;23.406;2022-12-07T03:10:27;51.27;;;21.33;;
7021;SDS011;3552;42.664;23.406;2022-12-07T03:13:02;40.90;;;19.90;;
7021;SDS011;3552;42.664;23.406;2022-12-07T03:15:38;45.00;;;20.93;;
7021;SDS011;3552;42.664;23.406;2022-12-07T03:18:08;46.73;;;20.87;;
7021;SDS011;3552;42.664;23.406;2022-12-07T03:20:39;40.17;;;19.77;;
7021;SDS011;3552;42.664;23.406;2022-12-07T03:23:08;41.03;;;19.70;;
7021;SDS011;3552;42.664;23.406;2022-12-07T03:25:39;40.07;;;19.40;;
7021;SDS011;3552;42.664;23.406;2022-12-07T03:28:10;37.63;;;18.57;;
7021;SDS011;3552;42.664;23.406;2022-12-07T03:30:42;37.03;;;17.93;;
7021;SDS011;3552;42.664;23.406;2022-12-07T03:33:17;43.00;;;18.70;;
7021;SDS011;3552;42.664;23.406;2022-12-07T03:35:50;37.67;;;16.80;;
7021;SDS011;3552;42.664;23.406;2022-12-07T03:38:25;34.90;;;16.83;;
7021;SDS011;3552;42.664;23.406;2022-12-07T03:40:58;35.43;;;17.13;;
7021;SDS011;3552;42.664;23.406;2022-12-07T03:43:28;33.33;;;17.13;;
7021;SDS011;3552;42.664;23.406;2022-12-07T03:46:02;38.73;;;18.73;;
7021;SDS011;3552;42.664;23.406;2022-12-07T03:48:41;43.63;;;19.53;;
7021;SDS011;3552;42.664;23.406;2022-12-07T03:51:16;33.47;;;17.40;;
7021;SDS011;3552;42.664;23.406;2022-12-07T03:53:50;40.73;;;19.67;;
7021;SDS011;3552;42.664;23.406;2022-12-07T03:56:21;46.27;;;21.77;;
7021;SDS011;3552;42.664;23.406;2022-12-07T03:58:52;44.87;;;21.67;;
7021;SDS011;3552;42.664;23.406;2022-12-07T04:04:23;42.60;;;19.47;;
7021;SDS011;3552;42.664;23.406;2022-12-07T04:06:54;44.43;;;19.90;;
7021;SDS011;3552;42.664;23.406;2022-12-07T04:09:22;38.27;;;18.93;;
7021;SDS011;3552;42.664;23.406;2022-12-07T04:11:49;39.30;;;18.07;;
7021;SDS011;3552;42.664;23.406;2022-12-07T04:14:16;41.63;;;18.27;;
7021;SDS011;3552;42.664;23.406;2022-12-07T04:16:51;35.77;;;16.77;;
7021;SDS011;3552;42.664;23.406;2022-12-07T04:19:23;42.60;;;20.30;;
7021;SDS011;3552;42.664;23.406;2022-12-07T04:21:54;43.37;;;20.03;;
7021;SDS011;3552;42.664;23.406;2022-12-07T04:24:52;42.07;;;17.17;;
7021;SDS011;3552;42.664;23.406;2022-12-07T04:27:40;44.87;;;17.77;;
7021;SDS011;3552;42.664;23.406;2022-12-07T04:30:12;39.50;;;17.73;;
7021;SDS011;3552;42.664;23.406;2022-12-07T04:35:26;40.50;;;18.13;;
7021;SDS011;3552;42.664;23.406;2022-12-07T04:37:54;41.07;;;18.53;;
7021;SDS011;3552;42.664;23.406;2022-12-07T04:40:23;37.97;;;17.37;;
7021;SDS011;3552;42.664;23.406;2022-12-07T04:42:53;35.93;;;17.10;;
7021;SDS011;3552;42.664;23.406;2022-12-07T04:45:22;41.90;;;18.77;;
7021;SDS011;3552;42.664;23.406;2022-12-07T04:47:49;30.80;;;17.27;;
7021;SDS011;3552;42.664;23.406;2022-12-07T04:50:19;41.63;;;18.43;;
7021;SDS011;3552;42.664;23.406;2022-12-07T04:52:55;52.50;;;19.63;;
7021;SDS011;3552;42.664;23.406;2022-12-07T04:55:41;43.90;;;17.83;;
7021;SDS011;3552;42.664;23.406;2022-12-07T04:58:18;39.17;;;17.80;;
7021;SDS011;3552;42.664;23.406;2022-12-07T05:00:45;47.70;;;18.10;;
7021;SDS011;3552;42.664;23.406;2022-12-07T05:03:12;45.60;;;18.70;;
7021;SDS011;3552;42.664;23.406;2022-12-07T05:05:41;49.07;;;19.13;;
7021;SDS011;3552;42.664;23.406;2022-12-07T05:08:08;50.47;;;19.70;;
7021;SDS011;3552;42.664;23.406;2022-12-07T05:10:36;54.83;;;18.90;;
7021;SDS011;3552;42.664;23.406;2022-12-07T05:13:05;40.00;;;17.87;;
7021;SDS011;3552;42.664;23.406;2022-12-07T05:15:32;41.43;;;18.77;;
7021;SDS011;3552;42.664;23.406;2022-12-07T05:17:59;45.90;;;17.87;;
7021;SDS011;3552;42.664;23.406;2022-12-07T05:20:28;41.23;;;19.37;;
7021;SDS011;3552;42.664;23.406;2022-12-07T05:22:57;42.97;;;19.93;;
7021;SDS011;3552;42.664;23.406;2022-12-07T05:25:24;46.43;;;23.53;;
7021;SDS011;3552;42.664;23.406;2022-12-07T05:27:51;49.07;;;21.73;;
7021;SDS011;3552;42.664;23.406;2022-12-07T05:30:18;64.10;;;23.47;;
7021;SDS011;3552;42.664;23.406;2022-12-07T05:32:46;59.30;;;23.70;;
7021;SDS011;3552;42.664;23.406;2022-12-07T05:35:13;54.73;;;24.37;;
7021;SDS011;3552;42.664;23.406;2022-12-07T05:37:40;63.63;;;26.63;;
7021;SDS011;3552;42.664;23.406;2022-12-07T05:40:11;45.37;;;20.83;;
7021;SDS011;3552;42.664;23.406;2022-12-07T05:42:38;45.00;;;19.90;;
7021;SDS011;3552;42.664;23.406;2022-12-07T05:45:06;49.43;;;21.53;;
7021;SDS011;3552;42.664;23.406;2022-12-07T05:47:34;50.63;;;21.33;;
7021;SDS011;3552;42.664;23.406;2022-12-07T05:50:03;72.33;;;23.47;;
7021;SDS011;3552;42.664;23.406;2022-12-07T05:52:31;66.73;;;22.97;;
7021;SDS011;3552;42.664;23.406;2022-12-07T05:54:59;54.40;;;22.27;;
7021;SDS011;3552;42.664;23.406;2022-12-07T05:57:27;54.40;;;21.90;;
7021;SDS011;3552;42.664;23.406;2022-12-07T05:59:54;64.53;;;24.93;;
7021;SDS011;3552;42.664;23.406;2022-12-07T06:02:20;57.97;;;23.83;;
7021;SDS011;3552;42.664;23.406;2022-12-07T06:04:47;60.30;;;24.43;;
7021;SDS011;3552;42.664;23.406;2022-12-07T06:07:15;65.37;;;24.00;;
7021;SDS011;3552;42.664;23.406;2022-12-07T06:09:57;59.53;;;25.43;;
7021;SDS011;3552;42.664;23.406;2022-12-07T06:12:24;60.03;;;25.53;;
7021;SDS011;3552;42.664;23.406;2022-12-07T06:15:00;57.07;;;24.40;;
7021;SDS011;3552;42.664;23.406;2022-12-07T06:17:27;60.43;;;25.70;;
7021;SDS011;3552;42.664;23.406;2022-12-07T06:19:54;74.30;;;26.97;;
7021;SDS011;3552;42.664;23.406;2022-12-07T06:22:21;71.13;;;26.60;;
7021;SDS011;3552;42.664;23.406;2022-12-07T06:24:48;62.53;;;25.37;;
7021;SDS011;3552;42.664;23.406;2022-12-07T06:27:15;69.43;;;35.53;;
7021;SDS011;3552;42.664;23.406;2022-12-07T06:29:42;74.90;;;32.87;;
7021;SDS011;3552;42.664;23.406;2022-12-07T06:32:11;76.70;;;34.37;;
7021;SDS011;3552;42.664;23.406;2022-12-07T06:34:37;68.50;;;35.47;;
7021;SDS011;3552;42.664;23.406;2022-12-07T06:37:05;65.03;;;31.90;;
7021;SDS011;3552;42.664;23.406;2022-12-07T06:39:32;62.33;;;28.80;;
7021;SDS011;3552;42.664;23.406;2022-12-07T06:41:59;77.97;;;35.43;;
7021;SDS011;3552;42.664;23.406;2022-12-07T06:44:26;86.63;;;36.30;;
7021;SDS011;3552;42.664;23.406;2022-12-07T06:46:52;86.13;;;34.67;;
7021;SDS011;3552;42.664;23.406;2022-12-07T06:49:22;67.50;;;32.67;;
7021;SDS011;3552;42.664;23.406;2022-12-07T06:51:48;60.53;;;29.40;;
7021;SDS011;3552;42.664;23.406;2022-12-07T06:54:15;74.77;;;30.43;;
7021;SDS011;3552;42.664;23.406;2022-12-07T06:56:42;62.30;;;29.07;;
7021;SDS011;3552;42.664;23.406;2022-12-07T06:59:09;60.13;;;30.37;;
7021;SDS011;3552;42.664;23.406;2022-12-07T07:01:36;64.33;;;26.83;;
7021;SDS011;3552;42.664;23.406;2022-12-07T07:04:03;49.37;;;25.43;;
7021;SDS011;3552;42.664;23.406;2022-12-07T07:06:34;54.20;;;24.43;;
7021;SDS011;3552;42.664;23.406;2022-12-07T07:09:00;53.80;;;23.27;;
7021;SDS011;3552;42.664;23.406;2022-12-07T07:11:27;40.67;;;21.27;;
7021;SDS011;3552;42.664;23.406;2022-12-07T07:13:55;48.70;;;22.40;;
7021;SDS011;3552;42.664;23.406;2022-12-07T07:16:27;43.23;;;21.43;;
7021;SDS011;3552;42.664;23.406;2022-12-07T07:18:55;44.93;;;21.77;;
7021;SDS011;3552;42.664;23.406;2022-12-07T07:21:22;43.73;;;21.67;;
7021;SDS011;3552;42.664;23.406;2022-12-07T07:23:52;47.63;;;22.57;;
7021;SDS011;3552;42.664;23.406;2022-12-07T07:26:22;41.80;;;20.87;;
7021;SDS011;3552;42.664;23.406;2022-12-07T07:28:49;38.77;;;21.13;;
7021;SDS011;3552;42.664;23.406;2022-12-07T07:31:16;51.30;;;24.40;;
7021;SDS011;3552;42.664;23.406;2022-12-07T07:33:44;52.13;;;23.20;;
7021;SDS011;3552;42.664;23.406;2022-12-07T07:36:11;47.30;;;23.37;;
7021;SDS011;3552;42.664;23.406;2022-12-07T07:38:38;46.30;;;22.17;;
7021;SDS011;3552;42.664;23.406;2022-12-07T07:41:06;53.10;;;23.87;;
7021;SDS011;3552;42.664;23.406;2022-12-07T07:43:34;57.63;;;25.47;;
7021;SDS011;3552;42.664;23.406;2022-12-07T07:46:02;52.57;;;23.47;;
7021;SDS011;3552;42.664;23.406;2022-12-07T07:48:30;49.97;;;24.43;;
7021;SDS011;3552;42.664;23.406;2022-12-07T07:50:56;52.97;;;25.63;;
7021;SDS011;3552;42.664;23.406;2022-12-07T07:53:23;56.03;;;25.53;;
7021;SDS011;3552;42.664;23.406;2022-12-07T07:55:51;61.10;;;27.07;;
7021;SDS011;3552;42.664;23.406;2022-12-07T07:58:20;60.83;;;29.73;;
7021;SDS011;3552;42.664;23.406;2022-12-07T08:00:47;57.73;;;27.07;;
7021;SDS011;3552;42.664;23.406;2022-12-07T08:03:15;53.87;;;27.00;;
7021;SDS011;3552;42.664;23.406;2022-12-07T08:05:42;53.53;;;25.70;;
7021;SDS011;3552;42.664;23.406;2022-12-07T08:08:09;49.87;;;24.30;;
7021;SDS011;3552;42.664;23.406;2022-12-07T08:10:37;48.03;;;24.80;;
7021;SDS011;3552;42.664;23.406;2022-12-07T08:13:05;50.73;;;25.73;;
7021;SDS011;3552;42.664;23.406;2022-12-07T08:15:40;51.70;;;25.77;;
7021;SDS011;3552;42.664;23.406;2022-12-07T08:18:09;63.83;;;27.57;;
7021;SDS011;3552;42.664;23.406;2022-12-07T08:20:37;56.00;;;28.50;;
7021;SDS011;3552;42.664;23.406;2022-12-07T08:23:05;53.73;;;26.77;;
7021;SDS011;3552;42.664;23.406;2022-12-07T08:25:33;52.57;;;26.87;;
7021;SDS011;3552;42.664;23.406;2022-12-07T08:28:00;56.93;;;25.57;;
7021;SDS011;3552;42.664;23.406;2022-12-07T08:30:29;58.70;;;24.77;;
7021;SDS011;3552;42.664;23.406;2022-12-07T08:32:57;51.97;;;25.83;;
7021;SDS011;3552;42.664;23.406;2022-12-07T08:35:25;52.00;;;25.30;;
7021;SDS011;3552;42.664;23.406;2022-12-07T08:37:53;57.90;;;26.30;;
7021;SDS011;3552;42.664;23.406;2022-12-07T08:40:19;56.47;;;27.37;;
7021;SDS011;3552;42.664;23.406;2022-12-07T08:42:48;53.50;;;26.77;;
7021;SDS011;3552;42.664;23.406;2022-12-07T08:45:16;53.40;;;26.53;;
7021;SDS011;3552;42.664;23.406;2022-12-07T08:47:45;47.90;;;22.87;;
7021;SDS011;3552;42.664;23.406;2022-12-07T08:50:17;47.70;;;21.93;;
7021;SDS011;3552;42.664;23.406;2022-12-07T08:52:44;51.83;;;22.47;;
7021;SDS011;3552;42.664;23.406;2022-12-07T08:55:16;38.23;;;20.80;;
7021;SDS011;3552;42.664;23.406;2022-12-07T08:57:43;50.53;;;22.93;;
7021;SDS011;3552;42.664;23.406;2022-12-07T09:00:10;42.93;;;21.23;;
7021;SDS011;3552;42.664;23.406;2022-12-07T09:02:38;47.60;;;21.60;;
7021;SDS011;3552;42.664;23.406;2022-12-07T09:05:06;46.73;;;23.03;;
7021;SDS011;3552;42.664;23.406;2022-12-07T09:07:34;47.57;;;22.97;;
7021;SDS011;3552;42.664;23.406;2022-12-07T09:10:02;35.93;;;17.57;;
7021;SDS011;3552;42.664;23.406;2022-12-07T09:12:30;35.40;;;18.00;;
7021;SDS011;3552;42.664;23.406;2022-12-07T09:14:57;50.10;;;20.03;;
7021;SDS011;3552;42.664;23.406;2022-12-07T09:17:25;38.93;;;19.77;;
7021;SDS011;3552;42.664;23.406;2022-12-07T09:19:53;48.00;;;21.03;;
7021;SDS011;3552;42.664;23.406;2022-12-07T09:22:20;44.93;;;22.27;;
7021;SDS011;3552;42.664;23.406;2022-12-07T09:24:48;43.87;;;22.33;;
7021;SDS011;3552;42.664;23.406;2022-12-07T09:27:15;63.90;;;28.27;;
7021;SDS011;3552;42.664;23.406;2022-12-07T09:29:43;45.53;;;23.30;;
7021;SDS011;3552;42.664;23.406;2022-12-07T09:32:10;30.37;;;18.50;;
7021;SDS011;3552;42.664;23.406;2022-12-07T09:34:37;46.90;;;19.67;;
7021;SDS011;3552;42.664;23.406;2022-12-07T09:37:04;40.77;;;18.73;;
7021;SDS011;3552;42.664;23.406;2022-12-07T09:39:31;38.37;;;18.77;;
7021;SDS011;3552;42.664;23.406;2022-12-07T09:42:00;37.27;;;18.40;;
7021;SDS011;3552;42.664;23.406;2022-12-07T09:44:30;36.80;;;18.27;;
7021;SDS011;3552;42.664;23.406;2022-12-07T09:46:58;44.73;;;17.67;;
7021;SDS011;3552;42.664;23.406;2022-12-07T09:49:25;38.80;;;17.57;;
7021;SDS011;3552;42.664;23.406;2022-12-07T09:52:01;30.13;;;16.60;;
7021;SDS011;3552;42.664;23.406;2022-12-07T09:54:43;41.80;;;18.80;;
7021;SDS011;3552;42.664;23.406;2022-12-07T09:57:15;44.40;;;20.03;;
7021;SDS011;3552;42.664;23.406;2022-12-07T09:59:42;43.63;;;21.30;;
7021;SDS011;3552;42.664;23.406;2022-12-07T10:02:24;38.73;;;18.63;;
7021;SDS011;3552;42.664;23.406;2022-12-07T10:04:59;34.27;;;18.33;;
7021;SDS011;3552;42.664;23.406;2022-12-07T10:07:27;43.33;;;19.00;;
7021;SDS011;3552;42.664;23.406;2022-12-07T10:09:54;49.60;;;18.93;;
7021;SDS011;3552;42.664;23.406;2022-12-07T10:12:22;40.90;;;18.43;;
7021;SDS011;3552;42.664;23.406;2022-12-07T10:14:55;36.30;;;18.63;;
7021;SDS011;3552;42.664;23.406;2022-12-07T10:17:30;37.53;;;17.77;;
7021;SDS011;3552;42.664;23.406;2022-12-07T10:20:13;55.47;;;25.13;;
7021;SDS011;3552;42.664;23.406;2022-12-07T10:25:32;38.40;;;19.47;;
7021;SDS011;3552;42.664;23.406;2022-12-07T10:28:10;47.30;;;20.97;;
7021;SDS011;3552;42.664;23.406;2022-12-07T10:30:46;36.87;;;19.67;;
7021;SDS011;3552;42.664;23.406;2022-12-07T10:33:28;40.70;;;19.17;;
7021;SDS011;3552;42.664;23.406;2022-12-07T10:35:57;39.80;;;17.90;;
7021;SDS011;3552;42.664;23.406;2022-12-07T10:38:26;47.10;;;17.47;;
7021;SDS011;3552;42.664;23.406;2022-12-07T10:43:47;38.67;;;18.33;;
7021;SDS011;3552;42.664;23.406;2022-12-07T10:49:24;42.07;;;16.07;;
7021;SDS011;3552;42.664;23.406;2022-12-07T10:52:06;36.67;;;15.43;;
7021;SDS011;3552;42.664;23.406;2022-12-07T10:54:39;33.93;;;14.33;;
7021;SDS011;3552;42.664;23.406;2022-12-07T10:57:18;35.33;;;15.40;;
7021;SDS011;3552;42.664;23.406;2022-12-07T11:00:04;34.10;;;16.53;;
7021;SDS011;3552;42.664;23.406;2022-12-07T11:02:38;23.03;;;12.47;;
7021;SDS011;3552;42.664;23.406;2022-12-07T11:05:18;35.00;;;14.70;;
7021;SDS011;3552;42.664;23.406;2022-12-07T11:07:56;27.37;;;14.00;;
7021;SDS011;3552;42.664;23.406;2022-12-07T11:10:31;27.30;;;11.87;;
7021;SDS011;3552;42.664;23.406;2022-12-07T11:13:13;26.63;;;10.93;;
7021;SDS011;3552;42.664;23.406;2022-12-07T11:15:54;25.17;;;11.87;;
7021;SDS011;3552;42.664;23.406;2022-12-07T11:18:33;26.13;;;13.17;;
7021;SDS011;3552;42.664;23.406;2022-12-07T11:21:05;19.97;;;10.40;;
7021;SDS011;3552;42.664;23.406;2022-12-07T11:23:40;21.43;;;11.30;;
7021;SDS011;3552;42.664;23.406;2022-12-07T11:26:18;29.27;;;11.90;;
7021;SDS011;3552;42.664;23.406;2022-12-07T11:28:59;29.73;;;12.70;;
7021;SDS011;3552;42.664;23.406;2022-12-07T11:31:44;28.63;;;12.77;;
7021;SDS011;3552;42.664;23.406;2022-12-07T11:34:24;26.57;;;13.90;;
7021;SDS011;3552;42.664;23.406;2022-12-07T11:36:59;29.90;;;13.63;;
7021;SDS011;3552;42.664;23.406;2022-12-07T11:39:30;29.80;;;13.97;;
7021;SDS011;3552;42.664;23.406;2022-12-07T11:42:03;32.20;;;15.33;;
7021;SDS011;3552;42.664;23.406;2022-12-07T11:44:33;23.83;;;13.00;;
7021;SDS011;3552;42.664;23.406;2022-12-07T11:47:13;27.87;;;13.80;;
7021;SDS011;3552;42.664;23.406;2022-12-07T11:49:47;29.20;;;13.83;;
7021;SDS011;3552;42.664;23.406;2022-12-07T11:52:22;34.60;;;14.17;;
7021;SDS011;3552;42.664;23.406;2022-12-07T11:54:56;36.63;;;15.00;;
7021;SDS011;3552;42.664;23.406;2022-12-07T11:57:28;40.20;;;16.00;;
7021;SDS011;3552;42.664;23.406;2022-12-07T12:00:00;37.87;;;16.57;;
7021;SDS011;3552;42.664;23.406;2022-12-07T12:02:34;32.30;;;14.87;;
7021;SDS011;3552;42.664;23.406;2022-12-07T12:05:06;30.50;;;14.73;;
7021;SDS011;3552;42.664;23.406;2022-12-07T12:07:41;27.23;;;13.47;;
7021;SDS011;3552;42.664;23.406;2022-12-07T12:10:14;35.13;;;14.00;;
7021;SDS011;3552;42.664;23.406;2022-12-07T12:12:54;47.10;;;15.60;;
7021;SDS011;3552;42.664;23.406;2022-12-07T12:15:45;42.90;;;15.07;;
7021;SDS011;3552;42.664;23.406;2022-12-07T12:18:33;45.37;;;14.93;;
7021;SDS011;3552;42.664;23.406;2022-12-07T12:21:13;26.00;;;14.10;;
7021;SDS011;3552;42.664;23.406;2022-12-07T12:23:44;33.53;;;14.00;;
7021;SDS011;3552;42.664;23.406;2022-12-07T12:26:16;32.20;;;17.53;;
7021;SDS011;3552;42.664;23.406;2022-12-07T12:28:50;33.30;;;16.37;;
7021;SDS011;3552;42.664;23.406;2022-12-07T12:31:34;28.40;;;15.07;;
7021;SDS011;3552;42.664;23.406;2022-12-07T12:36:57;25.93;;;14.30;;
7021;SDS011;3552;42.664;23.406;2022-12-07T12:39:24;33.40;;;15.53;;
7021;SDS011;3552;42.664;23.406;2022-12-07T12:41:58;38.23;;;14.63;;
7021;SDS011;3552;42.664;23.406;2022-12-07T12:44:39;30.57;;;14.23;;
7021;SDS011;3552;42.664;23.406;2022-12-07T12:50:24;27.77;;;13.23;;
7021;SDS011;3552;42.664;23.406;2022-12-07T12:52:54;27.27;;;13.03;;
7021;SDS011;3552;42.664;23.406;2022-12-07T12:55:28;32.30;;;13.43;;
7021;SDS011;3552;42.664;23.406;2022-12-07T12:58:28;34.73;;;12.60;;
7021;SDS011;3552;42.664;23.406;2022-12-07T13:04:24;24.83;;;13.37;;
7021;SDS011;3552;42.664;23.406;2022-12-07T13:07:04;23.40;;;11.90;;
7021;SDS011;3552;42.664;23.406;2022-12-07T13:09:35;20.70;;;12.53;;
7021;SDS011;3552;42.664;23.406;2022-12-07T13:12:03;25.53;;;11.47;;
7021;SDS011;3552;42.664;23.406;2022-12-07T13:14:51;19.73;;;8.93;;
7021;SDS011;3552;42.664;23.406;2022-12-07T13:23:12;13.90;;;9.17;;
7021;SDS011;3552;42.664;23.406;2022-12-07T13:25:45;19.83;;;10.83;;
7021;SDS011;3552;42.664;23.406;2022-12-07T13:28:18;20.07;;;11.13;;
7021;SDS011;3552;42.664;23.406;2022-12-07T13:30:49;18.70;;;12.80;;
7021;SDS011;3552;42.664;23.406;2022-12-07T13:33:34;20.43;;;10.10;;
7021;SDS011;3552;42.664;23.406;2022-12-07T13:36:02;15.93;;;11.13;;
7021;SDS011;3552;42.664;23.406;2022-12-07T13:38:34;18.23;;;11.77;;
7021;SDS011;3552;42.664;23.406;2022-12-07T13:41:03;21.23;;;13.00;;
7021;SDS011;3552;42.664;23.406;2022-12-07T13:43:42;19.83;;;11.80;;
7021;SDS011;3552;42.664;23.406;2022-12-07T13:46:11;22.67;;;11.77;;
7021;SDS011;3552;42.664;23.406;2022-12-07T13:48:44;20.20;;;11.63;;
7021;SDS011;3552;42.664;23.406;2022-12-07T13:51:17;33.03;;;12.73;;
7021;SDS011;3552;42.664;23.406;2022-12-07T13:53:48;33.10;;;12.43;;
7021;SDS011;3552;42.664;23.406;2022-12-07T13:56:17;32.63;;;13.27;;
7021;SDS011;3552;42.664;23.406;2022-12-07T13:58:47;27.20;;;11.57;;
7021;SDS011;3552;42.664;23.406;2022-12-07T14:01:18;27.07;;;14.20;;
7021;SDS011;3552;42.664;23.406;2022-12-07T14:03:46;34.03;;;13.00;;
7021;SDS011;3552;42.664;23.406;2022-12-07T14:06:20;28.07;;;11.03;;
7021;SDS011;3552;42.664;23.406;2022-12-07T14:09:17;29.23;;;13.57;;
7021;SDS011;3552;42.664;23.406;2022-12-07T14:11:47;25.90;;;13.63;;
7021;SDS011;3552;42.664;23.406;2022-12-07T14:14:17;24.50;;;13.03;;
7021;SDS011;3552;42.664;23.406;2022-12-07T14:16:55;28.07;;;11.93;;
7021;SDS011;3552;42.664;23.406;2022-12-07T14:19:44;41.97;;;15.10;;
7021;SDS011;3552;42.664;23.406;2022-12-07T14:22:24;41.00;;;12.67;;
7021;SDS011;3552;42.664;23.406;2022-12-07T14:27:51;36.03;;;12.17;;
7021;SDS011;3552;42.664;23.406;2022-12-07T14:30:21;34.73;;;12.60;;
7021;SDS011;3552;42.664;23.406;2022-12-07T14:32:53;22.50;;;11.63;;
7021;SDS011;3552;42.664;23.406;2022-12-07T14:35:24;37.50;;;13.10;;
7021;SDS011;3552;42.664;23.406;2022-12-07T14:37:52;38.30;;;13.47;;
7021;SDS011;3552;42.664;23.406;2022-12-07T14:40:22;44.60;;;17.20;;
7021;SDS011;3552;42.664;23.406;2022-12-07T14:42:50;43.23;;;13.63;;
7021;SDS011;3552;42.664;23.406;2022-12-07T14:45:21;37.30;;;13.73;;
7021;SDS011;3552;42.664;23.406;2022-12-07T14:47:52;29.23;;;12.80;;
7021;SDS011;3552;42.664;23.406;2022-12-07T14:50:33;27.63;;;12.83;;
7021;SDS011;3552;42.664;23.406;2022-12-07T14:53:09;51.83;;;15.73;;
7021;SDS011;3552;42.664;23.406;2022-12-07T14:55:40;52.77;;;15.27;;
7021;SDS011;3552;42.664;23.406;2022-12-07T14:58:09;47.90;;;16.20;;
7021;SDS011;3552;42.664;23.406;2022-12-07T15:00:39;50.27;;;15.07;;
7021;SDS011;3552;42.664;23.406;2022-12-07T15:03:09;66.33;;;18.67;;
7021;SDS011;3552;42.664;23.406;2022-12-07T15:05:38;98.03;;;21.10;;
7021;SDS011;3552;42.664;23.406;2022-12-07T15:08:06;121.43;;;22.30;;
7021;SDS011;3552;42.664;23.406;2022-12-07T15:10:34;143.50;;;22.87;;
7021;SDS011;3552;42.664;23.406;2022-12-07T15:13:06;103.47;;;20.63;;
7021;SDS011;3552;42.664;23.406;2022-12-07T15:16:03;88.13;;;19.33;;
7021;SDS011;3552;42.664;23.406;2022-12-07T15:18:31;119.03;;;21.03;;
7021;SDS011;3552;42.664;23.406;2022-12-07T15:20:58;48.57;;;16.50;;
7021;SDS011;3552;42.664;23.406;2022-12-07T15:23:26;40.63;;;14.77;;
7021;SDS011;3552;42.664;23.406;2022-12-07T15:26:11;82.60;;;19.67;;
7021;SDS011;3552;42.664;23.406;2022-12-07T15:32:23;75.47;;;20.47;;
7021;SDS011;3552;42.664;23.406;2022-12-07T15:34:53;98.00;;;22.57;;
7021;SDS011;3552;42.664;23.406;2022-12-07T15:37:19;65.47;;;21.63;;
7021;SDS011;3552;42.664;23.406;2022-12-07T15:39:48;118.90;;;24.63;;
7021;SDS011;3552;42.664;23.406;2022-12-07T15:42:15;71.17;;;23.20;;
7021;SDS011;3552;42.664;23.406;2022-12-07T15:44:41;95.40;;;24.27;;
7021;SDS011;3552;42.664;23.406;2022-12-07T15:47:28;115.87;;;25.47;;